Time;durP1;ratioP1;P1;durP2;ratioP2;P2;SDS_P1;SDS_P2;PMS_P1;PMS_P2;Temp;Humidity;BMP_temperature;BMP_pressure;BME280_temperature;BME280_humidity;BME280_pressure;Samples;Min_cycle;Max_cycle;Signal;HPM_P1;HPM_P2
2020/12/10 00:00:29;;;;;;;23.02;14.13;;;2.90;84.30;;;0.58;86.48;95198.66;4987550;28;20070;-65
2020/12/10 00:02:54;;;;;;;20.20;13.27;;;2.80;84.20;;;0.57;86.48;95202.22;4969337;28;20065;-65
2020/12/10 00:05:20;;;;;;;23.08;14.73;;;2.90;84.20;;;0.60;86.81;95195.91;4970828;28;20042;-65
2020/12/10 00:07:45;;;;;;;24.38;14.93;;;2.90;84.20;;;0.59;86.68;95202.88;4982407;28;20053;-65
2020/12/10 00:10:11;;;;;;;24.25;14.35;;;2.80;84.00;;;0.57;86.63;95191.84;4986673;28;20474;-65
2020/12/10 00:12:43;;;;;;;22.45;14.27;;;2.80;84.40;;;0.57;87.17;95202.22;4975725;28;20031;-62
2020/12/10 00:15:09;;;;;;;23.88;14.13;;;2.80;84.40;;;0.57;86.59;95202.22;4948252;28;20039;-63
2020/12/10 00:17:35;;;;;;;22.73;14.80;;;2.70;84.60;;;0.56;86.89;95187.66;4967009;28;20506;-62
2020/12/10 00:20:00;;;;;;;25.05;15.02;;;2.70;84.70;;;0.58;86.96;95188.31;4975411;28;20138;-63
2020/12/10 00:22:26;;;;;;;24.00;14.82;;;2.80;84.50;;;0.57;86.58;95180.69;4986970;28;20109;-62
2020/12/10 00:24:52;;;;;;;22.25;14.75;;;2.80;84.50;;;0.59;86.59;95187.34;4938053;28;20034;-64
2020/12/10 00:27:25;;;;;;;25.10;15.18;;;2.80;84.50;;;0.59;87.08;95184.75;4919691;28;20031;-63
2020/12/10 00:29:51;;;;;;;23.73;15.23;;;2.90;84.60;;;0.59;86.68;95179.59;4938183;28;20449;-64
2020/12/10 00:32:17;;;;;;;24.25;14.20;;;2.80;84.40;;;0.60;86.67;95180.41;4941907;28;20027;-64
2020/12/10 00:34:44;;;;;;;24.15;15.38;;;2.90;84.30;;;0.59;86.88;95178.78;4965587;28;20398;-64
2020/12/10 00:37:09;;;;;;;23.42;15.15;;;2.80;84.30;;;0.59;86.68;95189.13;4954016;28;20057;-64
2020/12/10 00:39:35;;;;;;;24.00;15.38;;;2.90;84.20;;;0.58;86.62;95192.69;4962575;28;20039;-63
2020/12/10 00:42:02;;;;;;;25.20;14.95;;;2.80;84.40;;;0.58;87.03;95185.72;4977299;28;20462;-63
2020/12/10 00:44:28;;;;;;;29.15;16.10;;;2.80;84.40;;;0.58;87.12;95183.13;4970638;28;20047;-63
2020/12/10 00:46:53;;;;;;;26.17;16.15;;;2.80;84.30;;;0.57;87.25;95181.50;4968178;28;20405;-64
2020/12/10 00:49:21;;;;;;;25.08;15.48;;;2.80;84.60;;;0.58;87.13;95177.97;4931084;28;20034;-64
2020/12/10 00:51:49;;;;;;;25.63;15.60;;;2.80;84.50;;;0.58;87.13;95179.75;4998461;28;20534;-63
2020/12/10 00:54:15;;;;;;;25.48;15.50;;;2.80;84.60;;;0.56;86.98;95176.50;4979230;28;20046;-64
2020/12/10 00:56:41;;;;;;;25.92;15.57;;;2.70;84.70;;;0.56;86.85;95169.53;4974067;28;20089;-64
2020/12/10 00:59:07;;;;;;;29.13;16.55;;;2.70;84.80;;;0.55;86.61;95157.56;4953375;28;20431;-64
2020/12/10 01:01:33;;;;;;;25.75;16.55;;;2.60;85.00;;;0.55;86.89;95152.38;4981288;23;20047;-77
2020/12/10 01:03:58;;;;;;;29.10;16.77;;;2.70;84.90;;;0.57;87.04;95144.47;4937304;28;20133;-75
2020/12/10 01:06:24;;;;;;;25.83;16.17;;;2.70;84.80;;;0.53;87.11;95145.75;4952011;28;20118;-77
2020/12/10 01:08:49;;;;;;;26.65;16.40;;;2.70;84.90;;;0.56;86.88;95150.63;4934882;28;20078;-77
2020/12/10 01:11:15;;;;;;;28.30;16.20;;;2.70;85.00;;;0.53;87.23;95138.78;4942956;28;20043;-77
2020/12/10 01:13:42;;;;;;;25.35;16.48;;;2.80;84.90;;;0.54;87.31;95150.78;4933000;28;20446;-75
2020/12/10 01:16:08;;;;;;;28.88;16.73;;;2.80;84.70;;;0.53;87.24;95149.16;4957389;28;20556;-75
2020/12/10 01:18:33;;;;;;;24.45;14.85;;;2.80;84.80;;;0.54;87.03;95150.78;4937897;28;20027;-75
2020/12/10 01:20:59;;;;;;;25.48;15.32;;;2.80;84.80;;;0.53;86.85;95149.16;4952607;28;20059;-75
2020/12/10 01:23:25;;;;;;;27.48;16.60;;;2.70;84.90;;;0.49;87.29;95147.81;4950159;28;20043;-76
2020/12/10 01:25:50;;;;;;;25.88;15.18;;;2.70;84.90;;;0.55;86.78;95156.75;4986619;28;20066;-75
2020/12/10 01:28:16;;;;;;;30.15;17.05;;;2.70;84.80;;;0.53;86.96;95151.72;4982814;28;20078;-75
2020/12/10 01:30:41;;;;;;;28.50;15.13;;;2.80;84.80;;;0.55;86.79;95149.00;4936591;28;20035;-75
2020/12/10 01:33:07;;;;;;;27.15;17.33;;;2.80;84.60;;;0.54;86.96;95150.78;4938405;29;20040;-74
2020/12/10 01:35:32;;;;;;;23.92;15.70;;;2.80;84.70;;;0.55;87.22;95147.22;4946057;28;20034;-75
2020/12/10 01:37:58;;;;;;;26.05;16.27;;;2.70;84.60;;;0.52;86.80;95147.53;4945862;28;20058;-74
2020/12/10 01:40:23;;;;;;;28.27;16.65;;;2.70;84.80;;;0.53;87.20;95143.97;4967239;28;20034;-75
2020/12/10 01:42:49;;;;;;;26.95;16.38;;;2.70;84.80;;;0.53;87.22;95137.97;4953553;28;20049;-74
2020/12/10 01:45:14;;;;;;;29.17;15.43;;;2.80;84.70;;;0.53;87.22;95138.78;4964162;28;20043;-74
2020/12/10 01:47:40;;;;;;;25.45;16.52;;;2.70;84.90;;;0.53;87.36;95143.97;4927103;28;20097;-75
2020/12/10 01:50:08;;;;;;;31.02;16.33;;;2.80;84.70;;;0.55;86.77;95142.03;4951085;28;20039;-75
2020/12/10 01:52:33;;;;;;;27.45;16.55;;;2.80;84.70;;;0.56;86.72;95143.66;4931010;28;20032;-75
2020/12/10 01:54:59;;;;;;;29.85;17.05;;;2.80;84.50;;;0.54;86.81;95140.41;4953423;28;20086;-74
2020/12/10 01:57:27;;;;;;;25.88;15.38;;;2.80;84.60;;;0.56;87.15;95135.09;4953395;28;20038;-74
2020/12/10 01:59:53;;;;;;;23.60;15.90;;;2.80;84.70;;;0.56;86.91;95133.31;4934977;28;20038;-72
2020/12/10 02:02:19;;;;;;;24.63;14.77;;;2.80;84.50;;;0.59;86.97;95127.03;4969479;28;20430;-74
2020/12/10 02:04:44;;;;;;;25.55;15.23;;;2.80;84.60;;;0.58;87.23;95121.03;4965144;28;20035;-74
2020/12/10 02:07:10;;;;;;;26.13;16.73;;;2.90;84.30;;;0.59;86.94;95127.03;4965955;28;20039;-75
2020/12/10 02:09:35;;;;;;;24.27;15.07;;;2.80;84.40;;;0.57;87.24;95124.59;4957632;28;20407;-74
2020/12/10 02:12:01;;;;;;;25.23;14.77;;;2.80;84.30;;;0.59;87.10;95117.47;4963838;28;20038;-74
2020/12/10 02:14:33;;;;;;;25.65;15.40;;;2.90;84.20;;;0.59;87.60;95117.47;4935416;28;20034;-75
2020/12/10 02:16:59;;;;;;;25.42;15.43;;;2.90;84.10;;;0.60;86.94;95110.53;4975078;28;20491;-75
2020/12/10 02:19:25;;;;;;;24.63;15.40;;;2.80;84.10;;;0.58;86.98;95105.50;4968531;28;20050;-75
2020/12/10 02:21:51;;;;;;;26.48;15.95;;;2.90;84.20;;;0.57;87.19;95096.13;4945307;28;20506;-75
2020/12/10 02:24:19;;;;;;;23.23;14.90;;;2.80;84.10;;;0.60;87.04;95103.59;4971280;28;20062;-75
2020/12/10 02:26:45;;;;;;;25.60;15.27;;;2.90;84.10;;;0.60;86.99;95093.22;4964726;28;20213;-75
2020/12/10 02:29:11;;;;;;;23.73;14.85;;;3.00;83.90;;;0.63;87.01;95097.28;4953004;28;20122;-75
2020/12/10 02:31:37;;;;;;;24.10;15.90;;;3.00;83.80;;;0.64;87.03;95090.34;4960278;28;20375;-75
2020/12/10 02:34:04;;;;;;;25.42;15.60;;;3.00;83.70;;;0.63;87.22;95093.88;4950684;28;20039;-74
2020/12/10 02:36:30;;;;;;;23.95;14.52;;;3.00;83.60;;;0.60;86.99;95077.72;4965623;28;20530;-76
2020/12/10 02:38:56;;;;;;;25.15;15.40;;;3.00;83.60;;;0.65;86.86;95082.41;4932983;29;20047;-76
2020/12/10 02:41:22;;;;;;;22.33;14.13;;;3.00;83.50;;;0.64;86.87;95078.22;4991462;28;20047;-76
2020/12/10 02:43:47;;;;;;;23.88;15.52;;;3.10;83.40;;;0.64;86.84;95079.97;4967920;28;20483;-75
2020/12/10 02:46:13;;;;;;;25.65;15.38;;;3.00;83.50;;;0.66;87.05;95075.47;4962041;28;20042;-76
2020/12/10 02:48:38;;;;;;;23.33;15.13;;;3.00;83.60;;;0.66;86.45;95073.69;4948001;28;20098;-75
2020/12/10 02:51:04;;;;;;;25.63;15.00;;;3.00;83.30;;;0.66;86.63;95070.28;4939772;28;20042;-75
2020/12/10 02:53:31;;;;;;;25.58;15.68;;;3.00;83.40;;;0.66;87.00;95070.28;4968640;28;20039;-76
2020/12/10 02:55:57;;;;;;;23.58;14.40;;;3.10;83.30;;;0.67;87.13;95066.72;4951899;28;20041;-74
2020/12/10 02:58:22;;;;;;;25.83;14.98;;;3.00;83.30;;;0.68;86.92;95060.59;4949305;28;20051;-74
2020/12/10 03:00:48;;;;;;;24.13;14.40;;;3.00;83.60;;;0.67;86.59;95051.22;4966939;28;20070;-75
2020/12/10 03:03:14;;;;;;;24.80;15.05;;;3.00;83.40;;;0.68;86.52;95045.06;4984845;28;20538;-75
2020/12/10 03:05:40;;;;;;;26.67;15.13;;;3.00;83.40;;;0.67;86.90;95051.22;4956270;28;20063;-76
2020/12/10 03:08:05;;;;;;;23.40;14.55;;;3.00;83.40;;;0.67;86.51;95059.78;4968529;28;20483;-75
2020/12/10 03:10:31;;;;;;;23.15;14.20;;;3.00;83.40;;;0.67;86.40;95059.78;4967607;28;20039;-76
2020/12/10 03:12:57;;;;;;;21.92;14.10;;;3.00;83.40;;;0.68;86.80;95060.59;4969796;28;20067;-75
2020/12/10 03:15:23;;;;;;;22.40;14.35;;;3.00;83.30;;;0.67;86.64;95046.03;4947018;28;20070;-75
2020/12/10 03:17:49;;;;;;;21.15;13.85;;;3.00;83.20;;;0.66;86.55;95037.47;4932257;28;20053;-75
2020/12/10 03:20:16;;;;;;;21.58;13.85;;;3.10;83.30;;;0.67;86.82;95041.66;4944789;28;20047;-76
2020/12/10 03:22:41;;;;;;;23.25;14.65;;;3.10;83.30;;;0.68;86.90;95042.47;4948232;28;20044;-75
2020/12/10 03:25:07;;;;;;;21.92;13.90;;;3.00;83.30;;;0.70;86.83;95043.16;4959040;28;20486;-76
2020/12/10 03:27:33;;;;;;;44.17;26.50;;;3.10;83.20;;;0.73;87.16;95048.84;4966753;28;20491;-76
2020/12/10 03:29:58;;;;;;;26.15;17.15;;;3.10;84.10;;;0.74;86.98;95041.88;4951254;28;20058;-75
2020/12/10 03:32:24;;;;;;;27.65;17.70;;;3.10;83.60;;;0.77;87.13;95033.81;4966479;28;20147;-75
2020/12/10 03:34:50;;;;;;;42.88;24.80;;;3.20;83.70;;;0.77;87.10;95031.22;4967227;28;20285;-76
2020/12/10 03:37:15;;;;;;;30.73;18.02;;;3.20;83.70;;;0.79;87.26;95026.69;4960653;28;20046;-75
2020/12/10 03:39:41;;;;;;;21.55;14.23;;;3.20;83.30;;;0.82;87.10;95028.97;4966664;28;20038;-76
2020/12/10 03:42:06;;;;;;;23.25;14.98;;;3.20;82.80;;;0.81;87.01;95028.16;4997736;28;20050;-76
2020/12/10 03:44:32;;;;;;;22.15;14.07;;;3.20;82.80;;;0.82;86.81;95031.56;4948330;28;20039;-75
2020/12/10 03:46:57;;;;;;;22.42;13.80;;;3.20;82.70;;;0.80;86.77;95016.19;4965687;28;20039;-75
2020/12/10 03:49:23;;;;;;;21.35;14.38;;;3.20;82.60;;;0.79;87.05;95013.75;4962141;28;20077;-76
2020/12/10 03:51:48;;;;;;;23.65;14.55;;;3.10;82.70;;;0.78;86.61;95012.94;4963479;28;20050;-76
2020/12/10 03:54:14;;;;;;;20.77;13.25;;;3.10;82.80;;;0.78;86.00;95012.13;4967240;28;20471;-75
2020/12/10 03:56:40;;;;;;;26.98;14.98;;;3.10;82.80;;;0.74;86.57;95005.66;4934524;28;20026;-75
2020/12/10 03:59:05;;;;;;;31.88;18.00;;;3.10;82.90;;;0.76;86.46;95003.72;4948050;28;20058;-75
2020/12/10 04:01:31;;;;;;;38.53;24.48;;;3.10;83.10;;;0.74;86.82;95001.28;4966277;28;20034;-76
2020/12/10 04:03:57;;;;;;;34.70;20.35;;;3.10;83.30;;;0.74;86.50;95001.28;4933790;28;20500;-75
2020/12/10 04:06:22;;;;;;;34.78;19.65;;;3.10;83.00;;;0.76;86.35;94993.38;4920037;28;20046;-76
2020/12/10 04:08:48;;;;;;;25.08;15.18;;;3.10;83.10;;;0.75;86.86;94996.91;4929036;28;20529;-76
2020/12/10 04:11:13;;;;;;;22.40;13.80;;;3.10;82.80;;;0.76;86.82;94998.53;4967816;28;20046;-75
2020/12/10 04:13:39;;;;;;;22.42;14.73;;;3.10;82.80;;;0.74;86.59;95001.28;4971392;28;20078;-75
2020/12/10 04:16:05;;;;;;;22.40;14.13;;;3.10;82.60;;;0.71;86.34;95000.78;4964271;28;20050;-76
2020/12/10 04:18:31;;;;;;;22.38;13.48;;;3.10;82.60;;;0.74;86.74;94990.13;4952504;28;20046;-76
2020/12/10 04:20:57;;;;;;;22.17;13.38;;;3.10;82.70;;;0.72;86.39;94987.69;4970914;28;20389;-75
2020/12/10 04:23:23;;;;;;;23.00;14.50;;;3.10;82.70;;;0.72;86.74;94994.66;4979438;28;20531;-76
2020/12/10 04:25:53;;;;;;;23.45;14.20;;;3.10;82.80;;;0.73;86.96;94988.50;4940392;28;20039;-76
2020/12/10 04:28:18;;;;;;;22.70;14.23;;;3.10;82.70;;;0.72;86.29;94981.72;4950830;28;20037;-76
2020/12/10 04:30:45;;;;;;;20.77;13.57;;;3.10;82.80;;;0.73;86.20;94983.34;4943758;28;20035;-75
2020/12/10 04:33:10;;;;;;;23.17;14.20;;;3.10;82.80;;;0.72;86.47;94989.47;4936358;28;20047;-76
2020/12/10 04:35:36;;;;;;;23.50;14.57;;;3.10;82.90;;;0.75;86.66;94986.56;4954699;28;20046;-76
2020/12/10 04:38:01;;;;;;;26.17;14.30;;;3.10;82.80;;;0.72;86.75;94984.31;4947439;28;20495;-75
2020/12/10 04:40:28;;;;;;;21.98;14.02;;;3.10;82.60;;;0.72;86.76;94995.47;4935489;28;20050;-76
2020/12/10 04:42:55;;;;;;;22.55;13.45;;;3.10;82.70;;;0.74;86.67;94987.53;4939349;28;20208;-76
2020/12/10 04:45:20;;;;;;;22.20;13.40;;;3.10;82.70;;;0.75;86.15;94989.97;4931957;28;20090;-75
2020/12/10 04:47:46;;;;;;;21.02;13.43;;;3.20;82.70;;;0.75;86.22;94991.75;4921178;28;20043;-75
2020/12/10 04:50:17;;;;;;;23.15;14.00;;;3.20;82.60;;;0.74;86.37;94990.94;4971339;28;20606;-76
2020/12/10 04:52:43;;;;;;;21.38;13.85;;;3.10;82.80;;;0.75;86.57;94991.75;4955137;28;20035;-75
2020/12/10 04:55:09;;;;;;;21.45;13.63;;;3.20;82.70;;;0.78;86.72;94996.59;4954926;28;20031;-76
2020/12/10 04:57:34;;;;;;;23.42;13.93;;;3.20;82.60;;;0.79;85.89;94998.22;4971178;28;20038;-75
2020/12/10 05:00:04;;;;;;;21.85;13.85;;;3.20;82.50;;;0.82;86.25;94992.72;4968666;28;20032;-74
2020/12/10 05:02:29;;;;;;;22.95;13.82;;;3.20;82.30;;;0.81;86.61;94988.53;4943362;28;20047;-76
2020/12/10 05:04:55;;;;;;;22.67;13.80;;;3.20;82.40;;;0.82;86.71;94993.53;4959882;28;20031;-76
2020/12/10 05:07:20;;;;;;;23.77;13.85;;;3.20;82.40;;;0.83;86.28;94994.34;4971290;28;20062;-76
2020/12/10 05:09:59;;;;;;;21.98;14.48;;;3.20;82.30;;;0.82;86.57;94987.56;4953913;28;20085;-75
2020/12/10 05:12:25;;;;;;;22.08;13.60;;;3.20;82.30;;;0.85;86.58;94992.41;4930762;28;20155;-75
2020/12/10 05:14:50;;;;;;;22.27;13.50;;;3.20;82.50;;;0.86;86.19;94983.69;4942963;28;20122;-71
2020/12/10 05:17:16;;;;;;;24.10;14.88;;;3.20;82.30;;;0.85;86.15;94992.41;4962671;28;20525;-72
2020/12/10 05:19:42;;;;;;;25.10;15.32;;;3.20;82.30;;;0.84;85.92;94985.63;4963534;28;20122;-70
2020/12/10 05:22:09;;;;;;;24.42;14.80;;;3.20;82.00;;;0.84;86.39;94990.78;4940722;28;20043;-70
2020/12/10 05:24:35;;;;;;;23.23;14.85;;;3.30;82.10;;;0.82;86.48;94987.56;4951523;28;20454;-66
2020/12/10 05:27:21;;;;;;;24.63;15.00;;;3.30;82.30;;;0.85;87.02;94987.25;4951067;28;20039;-71
2020/12/10 05:29:48;;;;;;;24.98;14.90;;;3.30;82.40;;;0.84;86.51;94986.44;4939063;28;20077;-67
2020/12/10 05:32:42;;;;;;;22.02;13.75;;;3.20;82.30;;;0.86;86.31;94981.09;4934558;28;20046;-75
2020/12/10 05:35:24;;;;;;;23.30;14.30;;;3.20;82.60;;;0.86;86.74;94975.91;4977236;28;20047;-75
2020/12/10 05:37:53;;;;;;;;;;;3.20;82.60;;;0.83;86.56;94978.81;4961154;28;20050;-75
2020/12/10 05:40:19;;;;;;;24.73;13.27;;;3.20;82.50;;;0.81;86.13;94976.41;4977482;28;20065;-75
2020/12/10 05:42:47;;;;;;;24.23;14.57;;;3.20;82.40;;;0.81;86.75;94983.34;4972407;28;20178;-76
2020/12/10 05:45:18;;;;;;;22.50;14.40;;;3.20;82.20;;;0.78;86.11;94981.06;4973708;28;20184;-75
2020/12/10 05:47:48;;;;;;;21.90;13.80;;;3.20;82.10;;;0.79;86.35;94985.28;4978701;28;20529;-75
2020/12/10 05:50:16;;;;;;;20.92;13.57;;;3.20;82.30;;;0.80;86.51;94984.31;4965202;28;20406;-75
2020/12/10 05:52:54;;;;;;;25.60;14.90;;;3.20;82.30;;;0.78;86.14;94981.06;4967458;28;20122;-76
2020/12/10 05:55:20;;;;;;;21.80;13.93;;;3.20;82.30;;;0.77;86.09;94987.22;4977771;28;20106;-74
2020/12/10 05:57:46;;;;;;;20.15;12.38;;;3.20;82.30;;;0.77;86.08;94969.09;4955021;28;20109;-75
2020/12/10 06:00:12;;;;;;;28.15;14.45;;;3.20;82.30;;;0.77;86.57;94974.28;4960789;28;20085;-75
2020/12/10 06:02:37;;;;;;;21.35;13.18;;;3.20;82.30;;;0.77;86.42;94979.47;4965544;28;20714;-72
2020/12/10 06:05:03;;;;;;;25.00;14.40;;;3.20;82.20;;;0.77;86.20;94974.28;4950554;28;20027;-73
2020/12/10 06:07:29;;;;;;;20.75;12.90;;;3.10;82.40;;;0.77;86.39;94979.47;4962094;28;20039;-74
2020/12/10 06:09:54;;;;;;;23.67;13.55;;;3.20;82.40;;;0.76;86.41;94977.84;4952381;28;20674;-71
2020/12/10 06:12:23;;;;;;;23.27;13.23;;;3.10;82.50;;;0.73;86.23;94983.34;4939218;29;20077;-72
2020/12/10 06:14:58;;;;;;;22.90;13.70;;;3.10;82.50;;;0.74;86.60;94982.34;4950387;28;20082;-72
2020/12/10 06:17:24;;;;;;;22.40;13.27;;;3.10;82.60;;;0.73;86.54;94975.56;4937437;28;20031;-72
2020/12/10 06:19:50;;;;;;;23.35;14.90;;;3.10;82.70;;;0.74;86.63;94974.59;4969159;28;20049;-73
2020/12/10 06:22:31;;;;;;;20.20;13.35;;;3.10;82.80;;;0.76;86.61;94977.84;4962941;28;20039;-73
2020/12/10 06:24:58;;;;;;;25.17;14.68;;;3.10;82.60;;;0.77;86.49;94976.88;4959392;28;20079;-68
2020/12/10 06:27:33;;;;;;;26.83;15.18;;;3.20;82.60;;;0.76;87.02;94977.84;4949962;28;20047;-67
2020/12/10 06:30:14;;;;;;;22.45;13.77;;;3.20;82.50;;;0.76;86.78;94980.44;4937253;28;20050;-70
2020/12/10 06:32:48;;;;;;;23.48;14.10;;;3.20;82.60;;;0.77;86.46;94979.47;4965027;28;20031;-67
2020/12/10 06:35:33;;;;;;;21.48;12.98;;;3.20;82.40;;;0.65;86.98;94960.00;4929263;29;20047;-67
2020/12/10 06:37:58;;;;;;;22.40;12.60;;;3.20;82.50;;;0.76;86.68;94977.84;4950350;28;20085;-73
2020/12/10 06:40:41;;;;;;;22.08;13.88;;;3.20;82.40;;;0.79;87.06;94985.28;4969523;28;20446;-73
2020/12/10 06:43:08;;;;;;;22.48;14.00;;;3.20;82.50;;;0.77;86.66;94989.81;4980705;28;20462;-73
2020/12/10 06:45:37;;;;;;;27.98;14.80;;;3.10;82.50;;;0.76;86.22;94983.00;4968187;28;20045;-75
2020/12/10 06:48:05;;;;;;;26.77;15.32;;;3.10;82.50;;;0.78;86.14;94988.84;4946829;28;20032;-73
2020/12/10 06:50:38;;;;;;;26.00;14.85;;;3.20;82.50;;;0.78;86.17;94986.25;4951850;28;20122;-67
2020/12/10 06:53:23;;;;;;;23.00;13.90;;;3.20;82.20;;;0.78;86.60;94991.44;4970204;28;20398;-74
2020/12/10 06:55:55;;;;;;;23.80;13.23;;;3.20;82.30;;;0.78;86.80;94991.44;4941003;28;20053;-74
2020/12/10 06:58:42;;;;;;;23.92;14.38;;;3.10;82.30;;;0.76;86.40;94988.19;4970782;28;20034;-77
2020/12/10 07:01:30;;;;;;;24.67;14.27;;;3.10;82.50;;;0.77;86.14;94997.56;4990125;28;20529;-78
2020/12/10 07:04:09;;;;;;;23.67;14.23;;;3.10;82.40;;;0.75;85.86;94992.56;4952644;28;20028;-70
2020/12/10 07:06:35;;;;;;;25.45;13.68;;;3.20;82.40;;;0.75;86.65;94989.16;4966853;28;20035;-68
2020/12/10 07:09:09;;;;;;;23.52;14.38;;;3.20;82.30;;;0.74;86.38;94985.75;4946751;28;20031;-73
2020/12/10 07:11:39;;;;;;;22.67;14.63;;;3.20;82.30;;;0.72;86.15;94986.88;4969290;28;20461;-74
2020/12/10 07:14:28;;;;;;;25.98;15.48;;;3.20;82.20;;;0.75;86.52;94987.38;4969491;28;20105;-66
2020/12/10 07:16:54;;;;;;;22.00;13.65;;;3.20;82.20;;;0.71;86.43;94980.91;4986248;28;20112;-76
2020/12/10 07:19:21;;;;;;;21.52;13.43;;;3.10;82.30;;;0.75;86.59;94989.16;4969489;28;20046;-75
2020/12/10 07:21:46;;;;;;;26.10;15.55;;;3.20;82.40;;;0.74;86.36;94990.13;4959256;28;20039;-76
2020/12/10 07:24:12;;;;;;;24.45;14.55;;;3.20;82.50;;;0.73;85.88;94978.97;4970315;28;20062;-69
2020/12/10 07:26:38;;;;;;;27.23;14.90;;;3.20;82.20;;;0.74;85.85;94984.94;4969308;28;20056;-73
2020/12/10 07:29:04;;;;;;;29.90;15.65;;;3.10;82.20;;;0.74;86.81;94987.53;4970913;28;20105;-77
2020/12/10 07:31:30;;;;;;;26.55;14.90;;;3.20;82.30;;;0.75;86.62;94984.78;4969498;28;20039;-76
2020/12/10 07:33:56;;;;;;;24.60;14.82;;;3.20;82.20;;;0.74;86.77;94985.75;4967993;28;20061;-77
2020/12/10 07:36:22;;;;;;;26.50;15.25;;;3.20;82.10;;;0.75;86.18;94983.97;4968214;28;20065;-76
2020/12/10 07:38:47;;;;;;;27.50;15.20;;;3.10;82.10;;;0.74;86.66;94982.34;4934849;28;20047;-74
2020/12/10 07:41:13;;;;;;;29.90;16.15;;;3.20;82.10;;;0.77;86.49;94974.28;4984995;28;20043;-75
2020/12/10 07:43:50;;;;;;;27.63;16.17;;;3.20;81.90;;;0.76;86.37;94973.47;4965516;28;20041;-66
2020/12/10 07:46:16;;;;;;;41.25;21.80;;;3.30;81.90;;;0.80;86.19;94968.78;4951396;28;20031;-72
2020/12/10 07:48:42;;;;;;;53.90;30.08;;;3.30;82.80;;;0.83;86.33;94965.88;4955332;28;20030;-71
2020/12/10 07:51:07;;;;;;;35.55;20.25;;;3.40;82.70;;;0.89;86.87;94970.41;4953665;28;20070;-70
2020/12/10 07:53:33;;;;;;;40.20;23.35;;;3.40;82.30;;;0.90;86.76;94974.63;4959179;28;20085;-69
2020/12/10 07:56:01;;;;;;;30.52;17.75;;;3.50;81.90;;;0.94;86.27;94969.97;4985493;28;20054;-70
2020/12/10 07:59:10;;;;;;;33.47;18.17;;;3.50;81.70;;;0.97;86.43;94975.66;4956641;28;20086;-70
2020/12/10 08:01:43;;;;;;;29.42;16.58;;;3.50;81.60;;;0.98;86.56;94974.69;4939650;29;20066;-73
2020/12/10 08:04:19;;;;;;;30.40;17.55;;;3.50;81.50;;;1.05;86.01;94972.25;4949342;28;20043;-68
2020/12/10 08:06:45;;;;;;;45.85;28.20;;;3.60;82.10;;;1.09;86.39;94969.19;4953518;28;20106;-70
2020/12/10 08:09:11;;;;;;;32.78;18.70;;;3.60;82.40;;;1.12;86.61;94963.69;4958001;28;20043;-74
2020/12/10 08:11:55;;;;;;;32.63;19.63;;;3.70;83.00;;;1.22;86.48;94969.56;4934166;28;20039;-68
2020/12/10 08:14:28;;;;;;;45.20;26.58;;;3.70;81.70;;;1.26;86.59;94953.69;4936613;28;20046;-71
2020/12/10 08:16:54;;;;;;;48.22;26.10;;;3.80;81.30;;;1.30;85.69;94960.97;4960891;28;20503;-67
2020/12/10 08:19:22;;;;;;;37.88;20.50;;;3.80;81.00;;;1.31;86.00;94944.47;4985933;28;20627;-73
2020/12/10 08:21:49;;;;;;;36.85;19.30;;;3.90;81.10;;;1.38;85.93;94952.41;4952820;28;20074;-76
2020/12/10 08:24:36;;;;;;;49.45;26.27;;;3.90;80.80;;;1.45;86.24;94959.38;4967459;28;20047;-68
2020/12/10 08:27:02;;;;;;;34.95;19.27;;;4.00;80.80;;;1.46;85.93;94955.00;4956720;28;20039;-68
2020/12/10 08:29:27;;;;;;;31.05;16.90;;;3.90;80.70;;;1.47;86.25;94956.63;4919835;28;20042;-77
2020/12/10 08:32:11;;;;;;;29.98;18.00;;;3.90;80.30;;;1.46;85.08;94950.63;4934200;28;20039;-77
2020/12/10 08:34:38;;;;;;;28.35;16.48;;;3.90;80.70;;;1.49;85.81;94949.50;4965954;28;20176;-68
2020/12/10 08:37:09;;;;;;;29.90;17.63;;;3.90;80.30;;;1.50;85.64;94945.94;4953085;28;20118;-75
2020/12/10 08:39:35;;;;;;;28.85;17.27;;;3.90;80.70;;;1.51;85.73;94943.19;4938122;28;20080;-77
2020/12/10 08:42:02;;;;;;;30.50;16.33;;;3.90;80.40;;;1.50;85.32;94944.16;4968953;28;20513;-77
2020/12/10 08:44:46;;;;;;;32.22;18.23;;;4.00;80.50;;;1.53;85.58;94955.97;4965209;28;20043;-75
2020/12/10 08:47:11;;;;;;;32.45;18.13;;;4.00;80.30;;;1.54;85.44;94957.59;4959759;28;20128;-71
2020/12/10 08:49:37;;;;;;;32.28;18.48;;;4.00;80.20;;;1.53;85.26;94950.78;4962186;28;20039;-70
2020/12/10 08:52:02;;;;;;;35.90;19.30;;;3.90;80.50;;;1.55;85.61;94959.22;4947442;28;20419;-69
2020/12/10 08:54:28;;;;;;;34.42;19.52;;;4.00;80.70;;;1.57;85.21;94957.25;4964109;28;20416;-71
2020/12/10 08:57:08;;;;;;;35.63;19.45;;;4.10;80.60;;;1.58;85.20;94950.31;4959971;28;20118;-71
2020/12/10 08:59:33;;;;;;;34.30;19.10;;;4.10;80.20;;;1.62;85.02;94949.84;4936846;28;20411;-68
2020/12/10 09:01:59;;;;;;;36.38;19.23;;;4.10;79.80;;;1.68;85.22;94954.38;4967854;28;20039;-68
2020/12/10 09:04:24;;;;;;;34.72;19.33;;;4.20;79.70;;;1.69;84.99;94955.97;4951518;28;20038;-73
2020/12/10 09:06:50;;;;;;;32.30;18.60;;;4.10;79.30;;;1.74;85.33;94964.06;4958369;28;20027;-69
2020/12/10 09:09:15;;;;;;;38.30;19.70;;;4.20;79.40;;;1.76;84.75;94954.34;4938846;28;20057;-66
2020/12/10 09:11:46;;;;;;;37.15;19.92;;;4.30;79.00;;;1.80;84.07;94955.63;4949137;28;20550;-68
2020/12/10 09:14:11;;;;;;;46.70;25.38;;;4.30;78.80;;;1.81;85.33;94954.69;4948634;28;20151;-67
2020/12/10 09:16:37;;;;;;;35.08;18.83;;;4.40;79.50;;;1.87;85.17;94955.00;4966931;28;20121;-67
2020/12/10 09:19:03;;;;;;;38.35;21.10;;;4.40;78.70;;;1.87;84.53;94955.00;4964399;28;20725;-67
2020/12/10 09:21:34;;;;;;;37.88;21.05;;;4.50;78.00;;;1.91;83.61;94951.09;4968404;28;20031;-67
2020/12/10 09:24:00;;;;;;;38.78;20.15;;;4.40;77.60;;;1.95;84.99;94949.81;4963801;28;20047;-67
2020/12/10 09:26:25;;;;;;;39.00;20.10;;;4.50;78.00;;;1.96;84.13;94956.59;4970771;28;20094;-73
2020/12/10 09:28:51;;;;;;;38.03;20.30;;;4.50;77.80;;;1.98;84.26;94954.66;4966542;28;20049;-67
2020/12/10 09:31:16;;;;;;;39.30;20.33;;;4.60;77.50;;;2.00;84.31;94947.53;4956094;28;20130;-65
2020/12/10 09:33:43;;;;;;;41.90;21.15;;;4.60;77.30;;;2.03;84.61;94954.97;4969717;28;20129;-75
2020/12/10 09:36:08;;;;;;;43.97;22.13;;;4.60;77.50;;;2.04;84.47;94954.84;4954823;28;20114;-68
2020/12/10 09:38:38;;;;;;;40.78;21.60;;;4.60;77.10;;;2.07;84.54;94948.50;4966587;28;20405;-67
2020/12/10 09:41:04;;;;;;;40.95;19.67;;;4.60;77.10;;;2.08;83.54;94944.94;4966912;28;20039;-72
2020/12/10 09:43:29;;;;;;;39.65;20.88;;;4.60;76.50;;;2.09;84.21;94943.97;4971196;28;20054;-73
2020/12/10 09:46:01;;;;;;;42.03;20.20;;;4.60;76.70;;;2.10;84.35;94953.34;4966530;28;20126;-72
2020/12/10 09:48:27;;;;;;;42.20;20.65;;;4.60;77.00;;;2.13;84.14;94945.25;4955304;28;20031;-73
2020/12/10 09:50:52;;;;;;;50.72;24.88;;;4.70;76.90;;;2.18;84.23;94945.56;5003718;28;20043;-73
2020/12/10 09:53:23;;;;;;;52.92;27.25;;;4.80;76.90;;;2.21;83.60;94932.25;4967830;28;20146;-71
2020/12/10 09:58:21;;;;;;;38.88;19.92;;;4.80;76.10;;;2.21;83.33;94929.66;4971027;28;20042;-73
2020/12/10 10:00:49;;;;;;;45.13;20.67;;;4.80;75.80;;;2.24;83.79;94926.72;4987344;28;20085;-69
2020/12/10 10:03:19;;;;;;;44.33;21.65;;;4.90;75.50;;;2.23;82.92;94914.72;4966869;28;20070;-70
2020/12/10 10:05:45;;;;;;;44.97;20.55;;;4.80;75.70;;;2.26;82.93;94924.75;4967101;28;20124;-69
2020/12/10 10:08:10;;;;;;;43.22;19.98;;;4.90;75.40;;;2.29;83.14;94916.69;4952032;28;20128;-69
2020/12/10 10:10:36;;;;;;;45.53;21.48;;;4.90;75.60;;;2.34;83.46;94924.75;4968119;28;20035;-74
2020/12/10 10:13:02;;;;;;;44.40;20.33;;;5.00;75.20;;;2.34;83.23;94909.19;4964528;28;20050;-74
2020/12/10 10:15:27;;;;;;;41.25;21.05;;;4.90;75.10;;;2.41;83.22;94909.31;4953147;28;20120;-72
2020/12/10 10:17:53;;;;;;;44.50;20.88;;;5.00;75.20;;;2.42;83.06;94903.97;4972227;28;20031;-68
2020/12/10 10:20:19;;;;;;;43.20;20.20;;;5.00;74.80;;;2.42;83.19;94911.75;4970778;28;20303;-68
2020/12/10 10:22:44;;;;;;;46.42;23.10;;;5.00;75.20;;;2.43;83.23;94902.97;4966373;28;20038;-74
2020/12/10 10:25:10;;;;;;;43.60;20.05;;;5.00;75.50;;;2.47;83.04;94906.84;4953572;28;20034;-74